sensor_id;sensor_type;location;lat;lon;timestamp;pressure;altitude;pressure_sealevel;temperature;humidity
67803;BME280;54601;51.378;-1.342;2022-09-06T00:00:48;99963.19;;;23.24;39.71
67803;BME280;54601;51.378;-1.342;2022-09-06T00:03:15;99964.31;;;23.20;39.83
67803;BME280;54601;51.378;-1.342;2022-09-06T00:05:39;99962.88;;;23.28;39.60
67803;BME280;54601;51.378;-1.342;2022-09-06T00:08:05;99962.09;;;23.23;39.63
67803;BME280;54601;51.378;-1.342;2022-09-06T00:10:32;99955.38;;;23.19;39.75
67803;BME280;54601;51.378;-1.342;2022-09-06T00:13:00;99950.27;;;23.30;39.56
67803;BME280;54601;51.378;-1.342;2022-09-06T00:15:22;99938.61;;;23.25;39.61
67803;BME280;54601;51.378;-1.342;2022-09-06T00:17:48;99939.77;;;23.03;39.93
67803;BME280;54601;51.378;-1.342;2022-09-06T00:20:14;99943.45;;;22.95;40.08
67803;BME280;54601;51.378;-1.342;2022-09-06T00:22:40;99948.47;;;23.12;39.83
67803;BME280;54601;51.378;-1.342;2022-09-06T00:25:07;99951.97;;;22.90;40.17
67803;BME280;54601;51.378;-1.342;2022-09-06T00:27:32;99951.67;;;23.46;39.64
67803;BME280;54601;51.378;-1.342;2022-09-06T00:29:57;99945.45;;;23.71;39.60
67803;BME280;54601;51.378;-1.342;2022-09-06T00:32:23;99943.77;;;23.86;39.32
67803;BME280;54601;51.378;-1.342;2022-09-06T00:34:49;99948.75;;;23.15;39.66
67803;BME280;54601;51.378;-1.342;2022-09-06T00:37:15;99945.97;;;23.30;39.84
67803;BME280;54601;51.378;-1.342;2022-09-06T00:39:40;99940.56;;;23.21;39.96
67803;BME280;54601;51.378;-1.342;2022-09-06T00:42:07;99938.30;;;22.95;39.94
67803;BME280;54601;51.378;-1.342;2022-09-06T00:44:32;99940.59;;;23.05;39.76
67803;BME280;54601;51.378;-1.342;2022-09-06T00:46:58;99944.58;;;23.09;39.65
67803;BME280;54601;51.378;-1.342;2022-09-06T00:49:29;99946.35;;;22.92;40.01
67803;BME280;54601;51.378;-1.342;2022-09-06T00:51:51;99946.43;;;22.96;39.89
67803;BME280;54601;51.378;-1.342;2022-09-06T00:54:15;99948.71;;;23.25;39.86
67803;BME280;54601;51.378;-1.342;2022-09-06T00:56:42;99950.82;;;23.06;39.66
67803;BME280;54601;51.378;-1.342;2022-09-06T00:59:07;99956.83;;;23.04;39.75
67803;BME280;54601;51.378;-1.342;2022-09-06T01:01:33;99960.05;;;23.17;39.52
67803;BME280;54601;51.378;-1.342;2022-09-06T01:03:59;99959.81;;;23.09;40.09
67803;BME280;54601;51.378;-1.342;2022-09-06T01:06:30;99958.79;;;22.93;39.93
67803;BME280;54601;51.378;-1.342;2022-09-06T01:09:00;99961.64;;;23.41;39.88
67803;BME280;54601;51.378;-1.342;2022-09-06T01:11:28;99956.27;;;23.33;39.65
67803;BME280;54601;51.378;-1.342;2022-09-06T01:13:49;99959.94;;;23.17;39.53
67803;BME280;54601;51.378;-1.342;2022-09-06T01:16:15;99959.30;;;22.94;39.83
67803;BME280;54601;51.378;-1.342;2022-09-06T01:18:47;99953.03;;;22.88;39.95
67803;BME280;54601;51.378;-1.342;2022-09-06T01:21:06;99948.84;;;22.73;40.16
67803;BME280;54601;51.378;-1.342;2022-09-06T01:26:00;99944.77;;;22.88;39.88
67803;BME280;54601;51.378;-1.342;2022-09-06T01:28:24;99946.56;;;22.86;39.91
67803;BME280;54601;51.378;-1.342;2022-09-06T01:30:47;99948.23;;;22.77;40.07
67803;BME280;54601;51.378;-1.342;2022-09-06T01:33:15;99945.68;;;22.88;39.85
67803;BME280;54601;51.378;-1.342;2022-09-06T01:35:37;99943.36;;;22.58;40.37
67803;BME280;54601;51.378;-1.342;2022-09-06T01:38:00;99942.78;;;23.05;39.95
67803;BME280;54601;51.378;-1.342;2022-09-06T01:40:25;99941.45;;;22.84;39.85
67803;BME280;54601;51.378;-1.342;2022-09-06T01:42:52;99942.00;;;22.76;40.04
67803;BME280;54601;51.378;-1.342;2022-09-06T01:45:19;99944.96;;;23.25;40.02
67803;BME280;54601;51.378;-1.342;2022-09-06T01:47:52;99946.65;;;23.06;40.35
67803;BME280;54601;51.378;-1.342;2022-09-06T01:50:24;99944.01;;;22.58;40.30
67803;BME280;54601;51.378;-1.342;2022-09-06T01:52:41;99941.35;;;22.77;39.96
67803;BME280;54601;51.378;-1.342;2022-09-06T01:55:13;99934.66;;;23.21;39.62
67803;BME280;54601;51.378;-1.342;2022-09-06T01:57:39;99929.89;;;22.65;40.14
67803;BME280;54601;51.378;-1.342;2022-09-06T02:00:03;99933.67;;;23.30;39.84
67803;BME280;54601;51.378;-1.342;2022-09-06T02:02:22;99934.44;;;23.18;39.64
67803;BME280;54601;51.378;-1.342;2022-09-06T02:04:45;99936.47;;;22.65;40.10
67803;BME280;54601;51.378;-1.342;2022-09-06T02:07:15;99939.85;;;22.65;40.15
67803;BME280;54601;51.378;-1.342;2022-09-06T02:09:38;99936.80;;;22.76;40.36
67803;BME280;54601;51.378;-1.342;2022-09-06T02:12:02;99940.04;;;23.37;39.69
67803;BME280;54601;51.378;-1.342;2022-09-06T02:14:30;99936.58;;;22.77;39.88
67803;BME280;54601;51.378;-1.342;2022-09-06T02:16:54;99936.36;;;22.73;39.96
67803;BME280;54601;51.378;-1.342;2022-09-06T02:19:23;99938.50;;;23.01;39.93
67803;BME280;54601;51.378;-1.342;2022-09-06T02:21:46;99937.11;;;22.59;40.14
67803;BME280;54601;51.378;-1.342;2022-09-06T02:24:14;99931.96;;;22.84;40.15
67803;BME280;54601;51.378;-1.342;2022-09-06T02:26:37;99925.84;;;22.89;40.44
67803;BME280;54601;51.378;-1.342;2022-09-06T02:29:02;99923.39;;;22.93;40.05
67803;BME280;54601;51.378;-1.342;2022-09-06T02:31:29;99924.10;;;22.67;39.96
67803;BME280;54601;51.378;-1.342;2022-09-06T02:33:53;99921.68;;;22.72;40.33
67803;BME280;54601;51.378;-1.342;2022-09-06T02:36:19;99923.63;;;22.75;39.89
67803;BME280;54601;51.378;-1.342;2022-09-06T02:38:45;99919.56;;;22.77;40.23
67803;BME280;54601;51.378;-1.342;2022-09-06T02:41:11;99920.69;;;22.75;40.26
67803;BME280;54601;51.378;-1.342;2022-09-06T02:43:36;99923.34;;;22.69;40.34
67803;BME280;54601;51.378;-1.342;2022-09-06T02:46:02;99932.47;;;22.66;40.39
67803;BME280;54601;51.378;-1.342;2022-09-06T02:48:28;99936.45;;;22.35;40.46
67803;BME280;54601;51.378;-1.342;2022-09-06T02:50:54;99928.49;;;22.73;40.63
67803;BME280;54601;51.378;-1.342;2022-09-06T02:53:19;99924.80;;;22.38;40.41
67803;BME280;54601;51.378;-1.342;2022-09-06T02:55:46;99920.16;;;22.78;40.54
67803;BME280;54601;51.378;-1.342;2022-09-06T02:58:11;99914.62;;;22.49;40.20
67803;BME280;54601;51.378;-1.342;2022-09-06T03:00:37;99912.16;;;22.61;40.37
67803;BME280;54601;51.378;-1.342;2022-09-06T03:03:03;99908.96;;;22.27;40.51
67803;BME280;54601;51.378;-1.342;2022-09-06T03:05:29;99912.31;;;22.72;40.22
67803;BME280;54601;51.378;-1.342;2022-09-06T03:07:54;99906.96;;;22.61;40.35
67803;BME280;54601;51.378;-1.342;2022-09-06T03:10:20;99900.16;;;22.49;40.14
67803;BME280;54601;51.378;-1.342;2022-09-06T03:12:46;99896.95;;;22.56;40.43
67803;BME280;54601;51.378;-1.342;2022-09-06T03:15:13;99892.35;;;22.69;40.58
67803;BME280;54601;51.378;-1.342;2022-09-06T03:17:38;99891.90;;;22.82;40.37
67803;BME280;54601;51.378;-1.342;2022-09-06T03:20:04;99887.97;;;22.72;40.17
67803;BME280;54601;51.378;-1.342;2022-09-06T03:22:29;99880.90;;;22.41;40.22
67803;BME280;54601;51.378;-1.342;2022-09-06T03:24:55;99881.65;;;22.66;40.26
67803;BME280;54601;51.378;-1.342;2022-09-06T03:27:21;99883.90;;;22.61;40.31
67803;BME280;54601;51.378;-1.342;2022-09-06T03:29:47;99882.08;;;22.89;40.20
67803;BME280;54601;51.378;-1.342;2022-09-06T03:32:12;99883.43;;;22.32;40.31
67803;BME280;54601;51.378;-1.342;2022-09-06T03:34:38;99880.93;;;22.53;40.41
67803;BME280;54601;51.378;-1.342;2022-09-06T03:37:04;99877.38;;;22.17;40.51
67803;BME280;54601;51.378;-1.342;2022-09-06T03:39:30;99872.33;;;22.68;40.48
67803;BME280;54601;51.378;-1.342;2022-09-06T03:41:56;99868.59;;;22.59;40.29
67803;BME280;54601;51.378;-1.342;2022-09-06T03:44:22;99868.50;;;22.92;40.10
67803;BME280;54601;51.378;-1.342;2022-09-06T03:46:47;99871.32;;;22.74;40.36
67803;BME280;54601;51.378;-1.342;2022-09-06T03:49:13;99870.31;;;22.41;40.10
67803;BME280;54601;51.378;-1.342;2022-09-06T03:51:39;99867.80;;;22.68;40.10
67803;BME280;54601;51.378;-1.342;2022-09-06T03:54:05;99865.46;;;22.83;40.21
67803;BME280;54601;51.378;-1.342;2022-09-06T03:56:31;99868.92;;;22.52;40.30
67803;BME280;54601;51.378;-1.342;2022-09-06T03:58:56;99869.88;;;22.93;40.05
67803;BME280;54601;51.378;-1.342;2022-09-06T04:01:22;99872.08;;;22.63;40.12
67803;BME280;54601;51.378;-1.342;2022-09-06T04:03:48;99874.18;;;22.71;40.34
67803;BME280;54601;51.378;-1.342;2022-09-06T04:06:14;99867.86;;;22.62;40.13
67803;BME280;54601;51.378;-1.342;2022-09-06T04:08:40;99870.91;;;22.78;40.20
67803;BME280;54601;51.378;-1.342;2022-09-06T04:11:06;99876.73;;;22.79;40.18
67803;BME280;54601;51.378;-1.342;2022-09-06T04:13:32;99881.29;;;22.41;40.41
67803;BME280;54601;51.378;-1.342;2022-09-06T04:15:58;99883.71;;;22.74;40.15
67803;BME280;54601;51.378;-1.342;2022-09-06T04:18:24;99886.83;;;22.75;40.21
67803;BME280;54601;51.378;-1.342;2022-09-06T04:20:50;99886.72;;;22.47;40.31
67803;BME280;54601;51.378;-1.342;2022-09-06T04:23:15;99884.83;;;22.53;40.21
67803;BME280;54601;51.378;-1.342;2022-09-06T04:25:44;99885.19;;;22.45;40.29
67803;BME280;54601;51.378;-1.342;2022-09-06T04:28:07;99879.57;;;22.42;40.35
67803;BME280;54601;51.378;-1.342;2022-09-06T04:30:32;99874.33;;;22.41;40.36
67803;BME280;54601;51.378;-1.342;2022-09-06T04:32:58;99867.42;;;22.61;40.38
67803;BME280;54601;51.378;-1.342;2022-09-06T04:35:24;99866.69;;;22.64;40.32
67803;BME280;54601;51.378;-1.342;2022-09-06T04:37:50;99867.78;;;22.05;40.45
67803;BME280;54601;51.378;-1.342;2022-09-06T04:40:16;99867.24;;;22.70;39.88
67803;BME280;54601;51.378;-1.342;2022-09-06T04:42:41;99862.16;;;22.20;40.22
67803;BME280;54601;51.378;-1.342;2022-09-06T04:45:08;99857.14;;;22.44;40.20
67803;BME280;54601;51.378;-1.342;2022-09-06T04:47:33;99846.40;;;22.42;40.28
67803;BME280;54601;51.378;-1.342;2022-09-06T04:49:59;99847.21;;;22.37;40.37
67803;BME280;54601;51.378;-1.342;2022-09-06T04:52:25;99847.76;;;22.44;40.24
67803;BME280;54601;51.378;-1.342;2022-09-06T04:54:50;99841.67;;;22.68;40.20
67803;BME280;54601;51.378;-1.342;2022-09-06T04:57:16;99840.69;;;22.63;40.28
67803;BME280;54601;51.378;-1.342;2022-09-06T04:59:42;99840.07;;;22.34;40.27
67803;BME280;54601;51.378;-1.342;2022-09-06T05:02:08;99848.63;;;22.70;40.15
67803;BME280;54601;51.378;-1.342;2022-09-06T05:04:34;99848.92;;;22.61;40.25
67803;BME280;54601;51.378;-1.342;2022-09-06T05:07:01;99851.69;;;22.64;40.20
67803;BME280;54601;51.378;-1.342;2022-09-06T05:09:25;99854.08;;;22.65;40.18
67803;BME280;54601;51.378;-1.342;2022-09-06T05:11:51;99857.42;;;22.73;40.06
67803;BME280;54601;51.378;-1.342;2022-09-06T05:14:17;99852.06;;;22.60;40.22
67803;BME280;54601;51.378;-1.342;2022-09-06T05:16:43;99850.26;;;22.46;40.12
67803;BME280;54601;51.378;-1.342;2022-09-06T05:19:08;99851.28;;;22.72;39.70
67803;BME280;54601;51.378;-1.342;2022-09-06T05:21:34;99853.29;;;22.50;40.34
67803;BME280;54601;51.378;-1.342;2022-09-06T05:24:00;99860.01;;;22.70;40.09
67803;BME280;54601;51.378;-1.342;2022-09-06T05:26:26;99856.23;;;22.37;40.19
67803;BME280;54601;51.378;-1.342;2022-09-06T05:28:52;99851.18;;;22.56;40.24
67803;BME280;54601;51.378;-1.342;2022-09-06T05:31:23;99850.00;;;22.46;40.06
67803;BME280;54601;51.378;-1.342;2022-09-06T05:33:43;99855.49;;;22.59;40.18
67803;BME280;54601;51.378;-1.342;2022-09-06T05:36:10;99860.52;;;22.76;39.93
67803;BME280;54601;51.378;-1.342;2022-09-06T05:38:35;99861.20;;;22.54;40.27
67803;BME280;54601;51.378;-1.342;2022-09-06T05:41:01;99861.74;;;22.40;40.14
67803;BME280;54601;51.378;-1.342;2022-09-06T05:43:26;99862.91;;;22.84;39.82
67803;BME280;54601;51.378;-1.342;2022-09-06T05:45:52;99862.33;;;22.82;39.87
67803;BME280;54601;51.378;-1.342;2022-09-06T05:48:18;99864.11;;;22.60;40.18
67803;BME280;54601;51.378;-1.342;2022-09-06T05:50:44;99865.60;;;22.86;39.68
67803;BME280;54601;51.378;-1.342;2022-09-06T05:53:10;99858.23;;;22.38;40.18
67803;BME280;54601;51.378;-1.342;2022-09-06T05:55:36;99851.17;;;22.76;39.96
67803;BME280;54601;51.378;-1.342;2022-09-06T05:58:01;99855.18;;;22.84;39.83
67803;BME280;54601;51.378;-1.342;2022-09-06T06:00:27;99858.99;;;22.73;40.01
67803;BME280;54601;51.378;-1.342;2022-09-06T06:02:53;99858.26;;;22.61;40.18
67803;BME280;54601;51.378;-1.342;2022-09-06T06:05:19;99852.57;;;22.71;40.04
67803;BME280;54601;51.378;-1.342;2022-09-06T06:07:45;99853.54;;;22.83;39.83
67803;BME280;54601;51.378;-1.342;2022-09-06T06:10:10;99851.11;;;22.58;40.22
67803;BME280;54601;51.378;-1.342;2022-09-06T06:12:36;99847.36;;;22.47;40.05
67803;BME280;54601;51.378;-1.342;2022-09-06T06:15:02;99847.46;;;22.84;39.90
67803;BME280;54601;51.378;-1.342;2022-09-06T06:17:28;99846.82;;;22.61;40.21
67803;BME280;54601;51.378;-1.342;2022-09-06T06:19:54;99841.71;;;22.56;40.26
67803;BME280;54601;51.378;-1.342;2022-09-06T06:22:20;99844.53;;;22.64;40.15
67803;BME280;54601;51.378;-1.342;2022-09-06T06:24:45;99849.75;;;22.57;39.94
67803;BME280;54601;51.378;-1.342;2022-09-06T06:27:11;99854.60;;;22.57;40.25
67803;BME280;54601;51.378;-1.342;2022-09-06T06:29:37;99864.26;;;22.74;39.99
67803;BME280;54601;51.378;-1.342;2022-09-06T06:32:03;99867.12;;;22.29;40.37
67803;BME280;54601;51.378;-1.342;2022-09-06T06:34:29;99867.84;;;22.68;40.14
67803;BME280;54601;51.378;-1.342;2022-09-06T06:36:54;99864.52;;;22.58;40.30
67803;BME280;54601;51.378;-1.342;2022-09-06T06:39:20;99863.54;;;22.81;40.00
67803;BME280;54601;51.378;-1.342;2022-09-06T06:41:46;99860.75;;;22.71;40.14
67803;BME280;54601;51.378;-1.342;2022-09-06T06:44:12;99861.30;;;22.56;40.40
67803;BME280;54601;51.378;-1.342;2022-09-06T06:46:38;99860.58;;;22.51;40.49
67803;BME280;54601;51.378;-1.342;2022-09-06T06:49:04;99864.39;;;22.59;40.41
67803;BME280;54601;51.378;-1.342;2022-09-06T06:51:31;99861.75;;;22.46;40.59
67803;BME280;54601;51.378;-1.342;2022-09-06T06:53:55;99870.69;;;22.58;40.38
67803;BME280;54601;51.378;-1.342;2022-09-06T06:56:22;99873.67;;;22.45;40.19
67803;BME280;54601;51.378;-1.342;2022-09-06T06:58:49;99881.55;;;22.73;40.18
67803;BME280;54601;51.378;-1.342;2022-09-06T07:01:13;99881.20;;;22.65;40.33
67803;BME280;54601;51.378;-1.342;2022-09-06T07:03:38;99873.22;;;22.45;40.62
67803;BME280;54601;51.378;-1.342;2022-09-06T07:06:04;99868.07;;;22.39;40.39
67803;BME280;54601;51.378;-1.342;2022-09-06T07:08:30;99873.54;;;22.57;40.44
67803;BME280;54601;51.378;-1.342;2022-09-06T07:10:56;99885.39;;;22.51;40.18
67803;BME280;54601;51.378;-1.342;2022-09-06T07:13:22;99888.28;;;22.69;40.30
67803;BME280;54601;51.378;-1.342;2022-09-06T07:15:47;99880.39;;;22.61;40.05
67803;BME280;54601;51.378;-1.342;2022-09-06T07:18:14;99879.15;;;23.32;39.17
67803;BME280;54601;51.378;-1.342;2022-09-06T07:20:39;99879.87;;;23.06;39.54
67803;BME280;54601;51.378;-1.342;2022-09-06T07:23:05;99874.25;;;23.60;38.77
67803;BME280;54601;51.378;-1.342;2022-09-06T07:25:31;99875.00;;;23.31;39.19
67803;BME280;54601;51.378;-1.342;2022-09-06T07:27:57;99872.02;;;23.43;39.04
67803;BME280;54601;51.378;-1.342;2022-09-06T07:30:22;99863.76;;;23.20;39.07
67803;BME280;54601;51.378;-1.342;2022-09-06T07:32:48;99851.92;;;22.90;39.13
67803;BME280;54601;51.378;-1.342;2022-09-06T07:35:14;99851.61;;;23.23;39.05
67803;BME280;54601;51.378;-1.342;2022-09-06T07:37:40;99854.53;;;23.79;38.79
67803;BME280;54601;51.378;-1.342;2022-09-06T07:40:06;99853.86;;;23.71;38.72
67803;BME280;54601;51.378;-1.342;2022-09-06T07:42:31;99851.82;;;23.93;38.86
67803;BME280;54601;51.378;-1.342;2022-09-06T07:44:57;99847.66;;;23.88;39.19
67803;BME280;54601;51.378;-1.342;2022-09-06T07:47:23;99846.82;;;23.90;39.36
67803;BME280;54601;51.378;-1.342;2022-09-06T07:49:48;99852.18;;;23.92;39.44
67803;BME280;54601;51.378;-1.342;2022-09-06T07:52:14;99846.98;;;23.98;39.28
67803;BME280;54601;51.378;-1.342;2022-09-06T07:54:40;99851.94;;;23.37;39.64
67803;BME280;54601;51.378;-1.342;2022-09-06T07:57:06;99849.13;;;23.95;39.54
67803;BME280;54601;51.378;-1.342;2022-09-06T07:59:31;99856.53;;;22.99;39.50
67803;BME280;54601;51.378;-1.342;2022-09-06T08:01:57;99857.83;;;23.79;39.30
67803;BME280;54601;51.378;-1.342;2022-09-06T08:04:23;99853.29;;;23.71;39.44
67803;BME280;54601;51.378;-1.342;2022-09-06T08:06:50;99844.66;;;23.88;39.64
67803;BME280;54601;51.378;-1.342;2022-09-06T08:09:15;99841.47;;;23.63;39.48
67803;BME280;54601;51.378;-1.342;2022-09-06T08:11:40;99843.99;;;23.53;39.46
67803;BME280;54601;51.378;-1.342;2022-09-06T08:14:07;99845.31;;;23.62;39.60
67803;BME280;54601;51.378;-1.342;2022-09-06T08:16:33;99838.09;;;23.79;39.51
67803;BME280;54601;51.378;-1.342;2022-09-06T08:18:59;99846.30;;;23.80;39.60
67803;BME280;54601;51.378;-1.342;2022-09-06T08:21:26;99859.71;;;23.92;39.41
67803;BME280;54601;51.378;-1.342;2022-09-06T08:23:51;99876.41;;;23.48;39.45
67803;BME280;54601;51.378;-1.342;2022-09-06T08:26:16;99876.41;;;23.36;39.54
67803;BME280;54601;51.378;-1.342;2022-09-06T08:28:41;99883.52;;;23.52;39.65
67803;BME280;54601;51.378;-1.342;2022-09-06T08:31:08;99882.92;;;23.50;39.65
67803;BME280;54601;51.378;-1.342;2022-09-06T08:33:32;99881.05;;;23.28;39.60
67803;BME280;54601;51.378;-1.342;2022-09-06T08:35:58;99873.03;;;23.23;39.65
67803;BME280;54601;51.378;-1.342;2022-09-06T08:38:24;99866.46;;;24.01;39.69
67803;BME280;54601;51.378;-1.342;2022-09-06T08:40:50;99865.11;;;23.61;40.08
67803;BME280;54601;51.378;-1.342;2022-09-06T08:43:18;99857.37;;;23.82;39.59
67803;BME280;54601;51.378;-1.342;2022-09-06T08:45:42;99852.08;;;23.86;39.58
67803;BME280;54601;51.378;-1.342;2022-09-06T08:48:07;99847.47;;;24.07;39.73
67803;BME280;54601;51.378;-1.342;2022-09-06T08:50:33;99851.78;;;24.00;39.43
67803;BME280;54601;51.378;-1.342;2022-09-06T08:53:01;99855.01;;;23.92;39.71
67803;BME280;54601;51.378;-1.342;2022-09-06T08:55:32;99852.79;;;24.17;39.67
67803;BME280;54601;51.378;-1.342;2022-09-06T08:58:02;99844.19;;;23.85;39.83
67803;BME280;54601;51.378;-1.342;2022-09-06T09:00:16;99848.24;;;24.20;39.51
67803;BME280;54601;51.378;-1.342;2022-09-06T09:02:44;99855.50;;;23.91;39.55
67803;BME280;54601;51.378;-1.342;2022-09-06T09:05:17;99849.08;;;24.03;39.32
67803;BME280;54601;51.378;-1.342;2022-09-06T09:07:38;99845.99;;;23.93;39.45
67803;BME280;54601;51.378;-1.342;2022-09-06T09:10:02;99848.20;;;23.96;39.38
67803;BME280;54601;51.378;-1.342;2022-09-06T09:12:25;99843.99;;;24.07;39.18
67803;BME280;54601;51.378;-1.342;2022-09-06T09:14:53;99845.73;;;24.36;39.08
67803;BME280;54601;51.378;-1.342;2022-09-06T09:17:20;99842.36;;;24.32;39.20
67803;BME280;54601;51.378;-1.342;2022-09-06T09:19:42;99841.85;;;24.07;39.14
67803;BME280;54601;51.378;-1.342;2022-09-06T09:22:08;99840.10;;;24.03;39.20
67803;BME280;54601;51.378;-1.342;2022-09-06T09:24:34;99841.34;;;24.08;39.09
67803;BME280;54601;51.378;-1.342;2022-09-06T09:27:04;99839.71;;;24.10;39.10
67803;BME280;54601;51.378;-1.342;2022-09-06T09:29:24;99844.66;;;24.14;39.13
67803;BME280;54601;51.378;-1.342;2022-09-06T09:31:53;99844.26;;;24.10;39.11
67803;BME280;54601;51.378;-1.342;2022-09-06T09:36:42;99835.91;;;24.00;39.46
67803;BME280;54601;51.378;-1.342;2022-09-06T09:39:08;99832.39;;;24.17;39.11
67803;BME280;54601;51.378;-1.342;2022-09-06T09:41:35;99834.99;;;24.14;39.11
67803;BME280;54601;51.378;-1.342;2022-09-06T09:44:01;99835.09;;;24.41;39.08
67803;BME280;54601;51.378;-1.342;2022-09-06T09:46:30;99834.28;;;24.13;39.08
67803;BME280;54601;51.378;-1.342;2022-09-06T09:49:01;99841.44;;;24.17;39.04
67803;BME280;54601;51.378;-1.342;2022-09-06T09:51:20;99844.85;;;24.20;38.96
67803;BME280;54601;51.378;-1.342;2022-09-06T09:53:51;99859.28;;;24.11;39.15
67803;BME280;54601;51.378;-1.342;2022-09-06T09:56:08;99859.35;;;24.11;39.14
67803;BME280;54601;51.378;-1.342;2022-09-06T09:58:35;99858.13;;;24.02;39.30
67803;BME280;54601;51.378;-1.342;2022-09-06T10:03:28;99851.62;;;24.18;39.15
67803;BME280;54601;51.378;-1.342;2022-09-06T10:05:55;99855.10;;;24.10;39.40
67803;BME280;54601;51.378;-1.342;2022-09-06T10:08:16;99857.47;;;24.14;39.43
67803;BME280;54601;51.378;-1.342;2022-09-06T10:10:46;99859.42;;;24.20;39.37
67803;BME280;54601;51.378;-1.342;2022-09-06T10:13:13;99855.13;;;24.22;39.34
67803;BME280;54601;51.378;-1.342;2022-09-06T10:15:36;99857.60;;;24.18;39.31
67803;BME280;54601;51.378;-1.342;2022-09-06T10:17:59;99849.72;;;24.39;39.48
67803;BME280;54601;51.378;-1.342;2022-09-06T10:20:31;99842.33;;;24.12;39.42
67803;BME280;54601;51.378;-1.342;2022-09-06T10:22:58;99841.13;;;24.01;39.52
67803;BME280;54601;51.378;-1.342;2022-09-06T10:25:31;99832.42;;;24.00;39.49
67803;BME280;54601;51.378;-1.342;2022-09-06T10:27:54;99828.83;;;24.03;39.35
67803;BME280;54601;51.378;-1.342;2022-09-06T10:30:09;99831.47;;;23.99;39.40
67803;BME280;54601;51.378;-1.342;2022-09-06T10:32:40;99824.76;;;23.94;39.48
67803;BME280;54601;51.378;-1.342;2022-09-06T10:35:07;99817.29;;;23.93;39.48
67803;BME280;54601;51.378;-1.342;2022-09-06T10:37:37;99811.08;;;23.92;39.56
67803;BME280;54601;51.378;-1.342;2022-09-06T10:39:55;99803.72;;;24.29;39.48
67803;BME280;54601;51.378;-1.342;2022-09-06T10:42:27;99805.95;;;23.98;39.70
67803;BME280;54601;51.378;-1.342;2022-09-06T10:44:54;99813.02;;;23.97;39.70
67803;BME280;54601;51.378;-1.342;2022-09-06T10:47:11;99808.28;;;23.97;39.65
67803;BME280;54601;51.378;-1.342;2022-09-06T10:49:36;99806.18;;;23.94;39.75
67803;BME280;54601;51.378;-1.342;2022-09-06T10:52:02;99805.69;;;24.01;39.72
67803;BME280;54601;51.378;-1.342;2022-09-06T10:54:29;99804.70;;;24.00;39.76
67803;BME280;54601;51.378;-1.342;2022-09-06T10:56:56;99809.48;;;24.22;39.88
67803;BME280;54601;51.378;-1.342;2022-09-06T10:59:21;99808.47;;;24.04;39.82
67803;BME280;54601;51.378;-1.342;2022-09-06T11:01:51;99805.75;;;24.02;39.70
67803;BME280;54601;51.378;-1.342;2022-09-06T11:04:13;99804.35;;;24.09;39.68
67803;BME280;54601;51.378;-1.342;2022-09-06T11:06:39;99794.84;;;24.09;39.49
67803;BME280;54601;51.378;-1.342;2022-09-06T11:09:06;99792.00;;;24.08;39.57
67803;BME280;54601;51.378;-1.342;2022-09-06T11:11:30;99792.97;;;24.04;39.59
67803;BME280;54601;51.378;-1.342;2022-09-06T11:13:52;99784.74;;;24.04;39.60
67803;BME280;54601;51.378;-1.342;2022-09-06T11:16:21;99789.23;;;24.01;39.56
67803;BME280;54601;51.378;-1.342;2022-09-06T11:18:46;99782.74;;;24.09;39.41
67803;BME280;54601;51.378;-1.342;2022-09-06T11:21:24;99776.30;;;24.10;39.58
67803;BME280;54601;51.378;-1.342;2022-09-06T11:23:42;99775.37;;;24.09;39.61
67803;BME280;54601;51.378;-1.342;2022-09-06T11:26:09;99775.06;;;24.19;39.40
67803;BME280;54601;51.378;-1.342;2022-09-06T11:28:29;99775.43;;;24.20;39.23
67803;BME280;54601;51.378;-1.342;2022-09-06T11:30:55;99782.60;;;24.20;39.25
67803;BME280;54601;51.378;-1.342;2022-09-06T11:33:23;99777.49;;;24.13;39.31
67803;BME280;54601;51.378;-1.342;2022-09-06T11:35:43;99776.19;;;24.12;39.23
67803;BME280;54601;51.378;-1.342;2022-09-06T11:38:18;99778.46;;;24.15;39.17
67803;BME280;54601;51.378;-1.342;2022-09-06T11:40:36;99778.98;;;24.14;39.13
67803;BME280;54601;51.378;-1.342;2022-09-06T11:43:08;99772.92;;;24.12;39.17
67803;BME280;54601;51.378;-1.342;2022-09-06T11:47:52;99777.45;;;24.08;39.19
67803;BME280;54601;51.378;-1.342;2022-09-06T11:50:24;99778.97;;;24.09;39.14
67803;BME280;54601;51.378;-1.342;2022-09-06T11:52:49;99765.00;;;24.03;39.21
67803;BME280;54601;51.378;-1.342;2022-09-06T11:55:11;99768.23;;;24.11;39.09
67803;BME280;54601;51.378;-1.342;2022-09-06T11:57:35;99764.65;;;24.07;39.09
67803;BME280;54601;51.378;-1.342;2022-09-06T12:00:03;99767.69;;;24.36;39.01
67803;BME280;54601;51.378;-1.342;2022-09-06T12:02:32;99774.60;;;24.04;39.10
67803;BME280;54601;51.378;-1.342;2022-09-06T12:07:18;99788.77;;;23.77;39.10
67803;BME280;54601;51.378;-1.342;2022-09-06T12:09:44;99783.69;;;24.00;39.08
67803;BME280;54601;51.378;-1.342;2022-09-06T12:12:10;99784.80;;;23.98;39.10
67803;BME280;54601;51.378;-1.342;2022-09-06T12:14:37;99775.52;;;24.01;39.12
67803;BME280;54601;51.378;-1.342;2022-09-06T12:21:53;99772.38;;;23.94;39.12
67803;BME280;54601;51.378;-1.342;2022-09-06T12:26:48;99770.05;;;23.97;39.13
67803;BME280;54601;51.378;-1.342;2022-09-06T12:29:10;99770.49;;;23.99;39.18
67803;BME280;54601;51.378;-1.342;2022-09-06T12:31:37;99759.37;;;23.97;39.19
67803;BME280;54601;51.378;-1.342;2022-09-06T12:34:08;99755.42;;;23.96;39.28
67803;BME280;54601;51.378;-1.342;2022-09-06T12:36:30;99755.17;;;23.93;39.39
67803;BME280;54601;51.378;-1.342;2022-09-06T12:38:55;99756.35;;;24.02;39.19
67803;BME280;54601;51.378;-1.342;2022-09-06T12:41:19;99748.09;;;24.03;39.08
67803;BME280;54601;51.378;-1.342;2022-09-06T12:43:44;99751.00;;;24.00;39.19
67803;BME280;54601;51.378;-1.342;2022-09-06T12:46:10;99752.56;;;23.93;39.26
67803;BME280;54601;51.378;-1.342;2022-09-06T12:48:36;99750.89;;;23.99;39.14
67803;BME280;54601;51.378;-1.342;2022-09-06T12:51:03;99752.64;;;24.02;39.10
67803;BME280;54601;51.378;-1.342;2022-09-06T12:53:27;99752.58;;;23.94;39.19
67803;BME280;54601;51.378;-1.342;2022-09-06T12:56:03;99740.17;;;23.87;39.23
67803;BME280;54601;51.378;-1.342;2022-09-06T12:58:26;99728.29;;;24.19;39.13
67803;BME280;54601;51.378;-1.342;2022-09-06T13:00:47;99733.14;;;23.99;39.00